sensor_id;sensor_type;location;lat;lon;timestamp;temperature;humidity
16521;DHT22;8373;48.110;11.522;2023-04-01T00:01:33;9.00;78.50
16521;DHT22;8373;48.110;11.522;2023-04-01T00:04:00;9.00;79.00
16521;DHT22;8373;48.110;11.522;2023-04-01T00:06:27;9.00;79.00
16521;DHT22;8373;48.110;11.522;2023-04-01T00:08:55;9.00;79.00
16521;DHT22;8373;48.110;11.522;2023-04-01T00:11:22;8.90;78.80
16521;DHT22;8373;48.110;11.522;2023-04-01T00:13:50;8.90;78.70
16521;DHT22;8373;48.110;11.522;2023-04-01T00:16:17;8.90;78.60
16521;DHT22;8373;48.110;11.522;2023-04-01T00:18:44;8.90;78.80
16521;DHT22;8373;48.110;11.522;2023-04-01T00:21:13;8.90;78.40
16521;DHT22;8373;48.110;11.522;2023-04-01T00:23:40;8.90;78.40
16521;DHT22;8373;48.110;11.522;2023-04-01T00:26:07;9.00;78.40
16521;DHT22;8373;48.110;11.522;2023-04-01T00:28:34;9.00;78.30
16521;DHT22;8373;48.110;11.522;2023-04-01T00:31:06;8.90;78.00
16521;DHT22;8373;48.110;11.522;2023-04-01T00:33:33;8.90;78.30
16521;DHT22;8373;48.110;11.522;2023-04-01T00:36:08;8.90;78.30
16521;DHT22;8373;48.110;11.522;2023-04-01T00:38:35;9.00;78.20
16521;DHT22;8373;48.110;11.522;2023-04-01T00:41:03;9.00;78.00
16521;DHT22;8373;48.110;11.522;2023-04-01T00:43:30;9.00;78.00
16521;DHT22;8373;48.110;11.522;2023-04-01T00:45:58;9.00;78.00
16521;DHT22;8373;48.110;11.522;2023-04-01T00:48:28;9.00;78.80
16521;DHT22;8373;48.110;11.522;2023-04-01T00:50:59;9.00;78.20
16521;DHT22;8373;48.110;11.522;2023-04-01T00:53:28;9.00;78.10
16521;DHT22;8373;48.110;11.522;2023-04-01T00:56:00;9.00;78.10
16521;DHT22;8373;48.110;11.522;2023-04-01T00:58:29;9.00;77.90
16521;DHT22;8373;48.110;11.522;2023-04-01T01:00:59;9.00;77.70
16521;DHT22;8373;48.110;11.522;2023-04-01T01:03:28;9.00;77.60
16521;DHT22;8373;48.110;11.522;2023-04-01T01:06:14;9.10;77.40
16521;DHT22;8373;48.110;11.522;2023-04-01T01:09:09;9.10;77.60
16521;DHT22;8373;48.110;11.522;2023-04-01T01:11:42;9.10;77.20
16521;DHT22;8373;48.110;11.522;2023-04-01T01:14:28;9.10;77.20
16521;DHT22;8373;48.110;11.522;2023-04-01T01:17:08;9.20;77.90
16521;DHT22;8373;48.110;11.522;2023-04-01T01:23:22;9.20;77.00
16521;DHT22;8373;48.110;11.522;2023-04-01T01:26:00;9.30;76.90
16521;DHT22;8373;48.110;11.522;2023-04-01T01:28:38;9.20;77.40
16521;DHT22;8373;48.110;11.522;2023-04-01T01:31:16;9.20;77.50
16521;DHT22;8373;48.110;11.522;2023-04-01T01:34:03;9.20;76.60
16521;DHT22;8373;48.110;11.522;2023-04-01T01:36:34;9.30;76.70
16521;DHT22;8373;48.110;11.522;2023-04-01T01:39:03;9.20;76.60
16521;DHT22;8373;48.110;11.522;2023-04-01T01:41:32;9.30;76.80
16521;DHT22;8373;48.110;11.522;2023-04-01T01:44:04;9.20;76.80
16521;DHT22;8373;48.110;11.522;2023-04-01T01:46:33;9.20;77.10
16521;DHT22;8373;48.110;11.522;2023-04-01T01:49:00;9.20;77.10
16521;DHT22;8373;48.110;11.522;2023-04-01T01:51:28;9.30;77.00
16521;DHT22;8373;48.110;11.522;2023-04-01T01:53:57;9.20;76.80
16521;DHT22;8373;48.110;11.522;2023-04-01T01:56:27;9.20;76.80
16521;DHT22;8373;48.110;11.522;2023-04-01T01:58:58;9.10;76.90
16521;DHT22;8373;48.110;11.522;2023-04-01T02:01:28;9.10;77.10
16521;DHT22;8373;48.110;11.522;2023-04-01T02:03:57;9.10;77.20
16521;DHT22;8373;48.110;11.522;2023-04-01T02:06:27;9.20;77.10
16521;DHT22;8373;48.110;11.522;2023-04-01T02:08:59;9.20;76.90
16521;DHT22;8373;48.110;11.522;2023-04-01T02:11:30;9.20;76.80
16521;DHT22;8373;48.110;11.522;2023-04-01T02:14:01;9.20;76.40
16521;DHT22;8373;48.110;11.522;2023-04-01T02:16:33;9.20;76.30
16521;DHT22;8373;48.110;11.522;2023-04-01T02:19:03;9.20;76.10
16521;DHT22;8373;48.110;11.522;2023-04-01T02:21:33;9.20;76.10
16521;DHT22;8373;48.110;11.522;2023-04-01T02:24:05;9.10;76.00
16521;DHT22;8373;48.110;11.522;2023-04-01T02:26:34;9.10;75.90
16521;DHT22;8373;48.110;11.522;2023-04-01T02:29:03;9.10;76.00
16521;DHT22;8373;48.110;11.522;2023-04-01T02:31:31;9.10;76.00
16521;DHT22;8373;48.110;11.522;2023-04-01T02:33:58;9.10;75.90
16521;DHT22;8373;48.110;11.522;2023-04-01T02:36:25;9.00;75.80
16521;DHT22;8373;48.110;11.522;2023-04-01T02:38:54;9.10;75.70
16521;DHT22;8373;48.110;11.522;2023-04-01T02:41:26;9.10;75.60
16521;DHT22;8373;48.110;11.522;2023-04-01T02:43:52;9.10;75.50
16521;DHT22;8373;48.110;11.522;2023-04-01T02:46:20;9.10;75.50
16521;DHT22;8373;48.110;11.522;2023-04-01T02:48:47;9.10;75.20
16521;DHT22;8373;48.110;11.522;2023-04-01T02:51:14;9.10;75.30
16521;DHT22;8373;48.110;11.522;2023-04-01T02:53:41;9.00;75.40
16521;DHT22;8373;48.110;11.522;2023-04-01T02:56:08;9.00;75.50
16521;DHT22;8373;48.110;11.522;2023-04-01T02:58:36;9.00;75.50
16521;DHT22;8373;48.110;11.522;2023-04-01T03:01:03;9.00;75.70
16521;DHT22;8373;48.110;11.522;2023-04-01T03:03:30;9.00;75.60
16521;DHT22;8373;48.110;11.522;2023-04-01T03:05:57;9.00;75.60
16521;DHT22;8373;48.110;11.522;2023-04-01T03:08:25;9.00;75.60
16521;DHT22;8373;48.110;11.522;2023-04-01T03:10:52;9.00;75.50
16521;DHT22;8373;48.110;11.522;2023-04-01T03:13:19;9.00;75.60
16521;DHT22;8373;48.110;11.522;2023-04-01T03:15:47;9.00;75.70
16521;DHT22;8373;48.110;11.522;2023-04-01T03:18:15;8.90;75.70
16521;DHT22;8373;48.110;11.522;2023-04-01T03:20:42;9.00;75.90
16521;DHT22;8373;48.110;11.522;2023-04-01T03:23:09;8.90;75.80
16521;DHT22;8373;48.110;11.522;2023-04-01T03:25:36;8.90;75.90
16521;DHT22;8373;48.110;11.522;2023-04-01T03:28:03;8.90;75.90
16521;DHT22;8373;48.110;11.522;2023-04-01T03:30:30;8.90;76.00
16521;DHT22;8373;48.110;11.522;2023-04-01T03:32:59;8.80;76.60
16521;DHT22;8373;48.110;11.522;2023-04-01T03:35:26;8.80;76.10
16521;DHT22;8373;48.110;11.522;2023-04-01T03:37:53;8.80;76.10
16521;DHT22;8373;48.110;11.522;2023-04-01T03:40:21;8.80;75.90
16521;DHT22;8373;48.110;11.522;2023-04-01T03:42:48;8.80;75.90
16521;DHT22;8373;48.110;11.522;2023-04-01T03:45:15;8.70;76.00
16521;DHT22;8373;48.110;11.522;2023-04-01T03:47:42;8.60;76.40
16521;DHT22;8373;48.110;11.522;2023-04-01T03:50:11;8.60;76.80
16521;DHT22;8373;48.110;11.522;2023-04-01T03:52:38;8.60;77.10
16521;DHT22;8373;48.110;11.522;2023-04-01T03:55:05;8.60;77.30
16521;DHT22;8373;48.110;11.522;2023-04-01T03:57:33;8.60;77.40
16521;DHT22;8373;48.110;11.522;2023-04-01T04:00:00;8.50;77.60
16521;DHT22;8373;48.110;11.522;2023-04-01T04:02:27;8.60;77.70
16521;DHT22;8373;48.110;11.522;2023-04-01T04:04:54;8.70;77.70
16521;DHT22;8373;48.110;11.522;2023-04-01T04:07:22;8.70;77.50
16521;DHT22;8373;48.110;11.522;2023-04-01T04:09:49;8.70;77.70
16521;DHT22;8373;48.110;11.522;2023-04-01T04:12:16;8.60;77.70
16521;DHT22;8373;48.110;11.522;2023-04-01T04:14:43;8.70;77.80
16521;DHT22;8373;48.110;11.522;2023-04-01T04:17:10;8.60;77.70
16521;DHT22;8373;48.110;11.522;2023-04-01T04:19:41;8.60;77.90
16521;DHT22;8373;48.110;11.522;2023-04-01T04:22:08;8.60;78.10
16521;DHT22;8373;48.110;11.522;2023-04-01T04:24:37;8.70;78.30
16521;DHT22;8373;48.110;11.522;2023-04-01T04:27:04;8.70;78.20
16521;DHT22;8373;48.110;11.522;2023-04-01T04:29:31;8.70;78.10
16521;DHT22;8373;48.110;11.522;2023-04-01T04:31:58;8.70;78.00
16521;DHT22;8373;48.110;11.522;2023-04-01T04:34:25;8.70;77.80
16521;DHT22;8373;48.110;11.522;2023-04-01T04:36:52;8.80;78.00
16521;DHT22;8373;48.110;11.522;2023-04-01T04:39:19;8.80;78.30
16521;DHT22;8373;48.110;11.522;2023-04-01T04:41:47;8.80;78.00
16521;DHT22;8373;48.110;11.522;2023-04-01T04:44:14;8.80;78.00
16521;DHT22;8373;48.110;11.522;2023-04-01T04:46:41;8.80;78.10
16521;DHT22;8373;48.110;11.522;2023-04-01T04:49:09;8.80;78.10
16521;DHT22;8373;48.110;11.522;2023-04-01T04:51:36;8.80;78.10
16521;DHT22;8373;48.110;11.522;2023-04-01T04:54:04;8.80;78.00
16521;DHT22;8373;48.110;11.522;2023-04-01T04:56:31;8.80;77.90
16521;DHT22;8373;48.110;11.522;2023-04-01T04:59:00;8.80;78.20
16521;DHT22;8373;48.110;11.522;2023-04-01T05:01:27;8.80;78.10
16521;DHT22;8373;48.110;11.522;2023-04-01T05:03:54;8.80;77.80
16521;DHT22;8373;48.110;11.522;2023-04-01T05:06:21;8.80;77.70
16521;DHT22;8373;48.110;11.522;2023-04-01T05:08:48;8.80;77.70
16521;DHT22;8373;48.110;11.522;2023-04-01T05:11:17;8.80;77.80
16521;DHT22;8373;48.110;11.522;2023-04-01T05:13:45;8.90;77.50
16521;DHT22;8373;48.110;11.522;2023-04-01T05:16:16;8.90;76.90
16521;DHT22;8373;48.110;11.522;2023-04-01T05:18:43;9.00;76.80
16521;DHT22;8373;48.110;11.522;2023-04-01T05:21:12;9.00;76.30
16521;DHT22;8373;48.110;11.522;2023-04-01T05:23:40;9.00;76.10
16521;DHT22;8373;48.110;11.522;2023-04-01T05:26:08;9.10;75.70
16521;DHT22;8373;48.110;11.522;2023-04-01T05:28:36;9.10;75.30
16521;DHT22;8373;48.110;11.522;2023-04-01T05:31:04;9.10;74.80
16521;DHT22;8373;48.110;11.522;2023-04-01T05:33:33;9.10;74.60
16521;DHT22;8373;48.110;11.522;2023-04-01T05:36:06;9.10;74.80
16521;DHT22;8373;48.110;11.522;2023-04-01T05:38:33;9.00;74.20
16521;DHT22;8373;48.110;11.522;2023-04-01T05:41:01;9.00;74.10
16521;DHT22;8373;48.110;11.522;2023-04-01T05:43:28;9.00;74.00
16521;DHT22;8373;48.110;11.522;2023-04-01T05:45:55;9.00;73.80
16521;DHT22;8373;48.110;11.522;2023-04-01T05:48:22;9.00;73.70
16521;DHT22;8373;48.110;11.522;2023-04-01T05:50:50;9.10;73.80
16521;DHT22;8373;48.110;11.522;2023-04-01T05:53:17;9.10;73.50
16521;DHT22;8373;48.110;11.522;2023-04-01T05:55:44;9.20;73.40
16521;DHT22;8373;48.110;11.522;2023-04-01T05:58:11;9.20;73.30
16521;DHT22;8373;48.110;11.522;2023-04-01T06:00:38;9.40;73.10
16521;DHT22;8373;48.110;11.522;2023-04-01T06:03:05;9.40;72.50
16521;DHT22;8373;48.110;11.522;2023-04-01T06:05:38;9.60;72.40
16521;DHT22;8373;48.110;11.522;2023-04-01T06:08:11;9.60;71.50
16521;DHT22;8373;48.110;11.522;2023-04-01T06:10:55;9.70;71.10
16521;DHT22;8373;48.110;11.522;2023-04-01T06:13:38;9.60;70.60
16521;DHT22;8373;48.110;11.522;2023-04-01T06:16:15;9.60;70.60
16521;DHT22;8373;48.110;11.522;2023-04-01T06:18:56;9.60;71.00
16521;DHT22;8373;48.110;11.522;2023-04-01T06:21:47;9.70;70.30
16521;DHT22;8373;48.110;11.522;2023-04-01T06:24:30;9.70;69.50
16521;DHT22;8373;48.110;11.522;2023-04-01T06:27:07;9.80;69.30
16521;DHT22;8373;48.110;11.522;2023-04-01T06:29:49;9.90;68.90
16521;DHT22;8373;48.110;11.522;2023-04-01T06:32:39;9.90;68.80
16521;DHT22;8373;48.110;11.522;2023-04-01T06:35:36;9.90;68.30
16521;DHT22;8373;48.110;11.522;2023-04-01T06:38:37;10.00;67.40
16521;DHT22;8373;48.110;11.522;2023-04-01T06:41:33;10.00;66.60
16521;DHT22;8373;48.110;11.522;2023-04-01T06:44:13;10.00;66.90
16521;DHT22;8373;48.110;11.522;2023-04-01T06:46:45;10.00;66.50
16521;DHT22;8373;48.110;11.522;2023-04-01T06:49:29;10.00;66.40
16521;DHT22;8373;48.110;11.522;2023-04-01T06:52:05;10.10;66.60
16521;DHT22;8373;48.110;11.522;2023-04-01T06:54:38;10.30;66.30
16521;DHT22;8373;48.110;11.522;2023-04-01T06:57:22;10.40;65.40
16521;DHT22;8373;48.110;11.522;2023-04-01T06:59:52;10.70;65.00
16521;DHT22;8373;48.110;11.522;2023-04-01T07:02:26;11.00;64.60
16521;DHT22;8373;48.110;11.522;2023-04-01T07:04:58;11.10;63.20
16521;DHT22;8373;48.110;11.522;2023-04-01T07:07:31;11.20;62.10
16521;DHT22;8373;48.110;11.522;2023-04-01T07:10:04;11.20;61.70
16521;DHT22;8373;48.110;11.522;2023-04-01T07:12:43;11.00;61.50
16521;DHT22;8373;48.110;11.522;2023-04-01T07:15:17;10.90;61.90
16521;DHT22;8373;48.110;11.522;2023-04-01T07:17:48;10.80;62.20
16521;DHT22;8373;48.110;11.522;2023-04-01T07:20:22;11.10;62.90
16521;DHT22;8373;48.110;11.522;2023-04-01T07:22:54;11.20;61.50
16521;DHT22;8373;48.110;11.522;2023-04-01T07:25:24;11.40;61.50
16521;DHT22;8373;48.110;11.522;2023-04-01T07:27:59;11.80;61.40
16521;DHT22;8373;48.110;11.522;2023-04-01T07:30:30;12.00;59.90
16521;DHT22;8373;48.110;11.522;2023-04-01T07:33:05;12.30;58.90
16521;DHT22;8373;48.110;11.522;2023-04-01T07:35:39;13.00;58.40
16521;DHT22;8373;48.110;11.522;2023-04-01T07:38:16;14.70;56.10
16521;DHT22;8373;48.110;11.522;2023-04-01T07:40:49;16.70;52.70
16521;DHT22;8373;48.110;11.522;2023-04-01T07:46:22;19.10;46.20
16521;DHT22;8373;48.110;11.522;2023-04-01T07:48:58;19.20;43.40
16521;DHT22;8373;48.110;11.522;2023-04-01T07:51:31;18.20;42.50
16521;DHT22;8373;48.110;11.522;2023-04-01T07:54:06;17.90;44.10
16521;DHT22;8373;48.110;11.522;2023-04-01T07:56:40;18.00;45.10
16521;DHT22;8373;48.110;11.522;2023-04-01T07:59:17;17.00;44.30
16521;DHT22;8373;48.110;11.522;2023-04-01T08:01:50;15.60;46.10
16521;DHT22;8373;48.110;11.522;2023-04-01T08:04:31;14.90;48.40
16521;DHT22;8373;48.110;11.522;2023-04-01T08:07:08;14.10;50.00
16521;DHT22;8373;48.110;11.522;2023-04-01T08:09:43;13.50;50.90
16521;DHT22;8373;48.110;11.522;2023-04-01T08:12:20;13.00;52.60
16521;DHT22;8373;48.110;11.522;2023-04-01T08:14:56;12.70;53.80
16521;DHT22;8373;48.110;11.522;2023-04-01T08:17:32;12.50;54.40
16521;DHT22;8373;48.110;11.522;2023-04-01T08:20:14;12.30;54.70
16521;DHT22;8373;48.110;11.522;2023-04-01T08:22:48;12.50;55.20
16521;DHT22;8373;48.110;11.522;2023-04-01T08:25:21;13.10;54.70
16521;DHT22;8373;48.110;11.522;2023-04-01T08:27:54;13.00;53.60
16521;DHT22;8373;48.110;11.522;2023-04-01T08:30:26;14.80;55.00
16521;DHT22;8373;48.110;11.522;2023-04-01T08:32:57;16.00;51.80
16521;DHT22;8373;48.110;11.522;2023-04-01T08:35:28;17.60;47.20
16521;DHT22;8373;48.110;11.522;2023-04-01T08:38:01;16.80;44.70
16521;DHT22;8373;48.110;11.522;2023-04-01T08:40:53;18.70;45.70
16521;DHT22;8373;48.110;11.522;2023-04-01T08:43:29;18.10;42.80
16521;DHT22;8373;48.110;11.522;2023-04-01T08:46:17;17.60;44.00
16521;DHT22;8373;48.110;11.522;2023-04-01T08:48:55;16.70;44.50
16521;DHT22;8373;48.110;11.522;2023-04-01T08:52:15;16.10;46.00
16521;DHT22;8373;48.110;11.522;2023-04-01T08:54:57;16.40;47.10
16521;DHT22;8373;48.110;11.522;2023-04-01T08:57:40;16.00;47.00
16521;DHT22;8373;48.110;11.522;2023-04-01T09:00:18;16.30;47.40
16521;DHT22;8373;48.110;11.522;2023-04-01T09:03:01;16.50;46.80
16521;DHT22;8373;48.110;11.522;2023-04-01T09:05:53;16.70;46.20
16521;DHT22;8373;48.110;11.522;2023-04-01T09:08:35;16.60;46.10
16521;DHT22;8373;48.110;11.522;2023-04-01T09:11:07;16.60;45.30
16521;DHT22;8373;48.110;11.522;2023-04-01T09:13:51;16.50;45.50
16521;DHT22;8373;48.110;11.522;2023-04-01T09:19:33;18.90;42.50
16521;DHT22;8373;48.110;11.522;2023-04-01T09:22:34;19.40;41.60
16521;DHT22;8373;48.110;11.522;2023-04-01T09:27:57;17.70;41.80
16521;DHT22;8373;48.110;11.522;2023-04-01T09:30:48;16.90;43.20
16521;DHT22;8373;48.110;11.522;2023-04-01T09:36:43;15.40;46.60
16521;DHT22;8373;48.110;11.522;2023-04-01T09:39:34;15.40;47.50
16521;DHT22;8373;48.110;11.522;2023-04-01T09:42:25;15.40;46.90
16521;DHT22;8373;48.110;11.522;2023-04-01T09:44:58;15.60;47.20
16521;DHT22;8373;48.110;11.522;2023-04-01T09:47:42;15.40;46.40
16521;DHT22;8373;48.110;11.522;2023-04-01T09:50:34;15.40;46.20
16521;DHT22;8373;48.110;11.522;2023-04-01T09:53:17;15.40;46.70
16521;DHT22;8373;48.110;11.522;2023-04-01T09:56:13;15.70;47.50
16521;DHT22;8373;48.110;11.522;2023-04-01T10:05:31;15.90;46.00
16521;DHT22;8373;48.110;11.522;2023-04-01T10:14:43;15.60;49.80
16521;DHT22;8373;48.110;11.522;2023-04-01T10:17:39;15.60;49.50
16521;DHT22;8373;48.110;11.522;2023-04-01T10:20:46;15.70;49.10
16521;DHT22;8373;48.110;11.522;2023-04-01T10:23:37;15.60;49.00
16521;DHT22;8373;48.110;11.522;2023-04-01T10:26:21;15.40;49.40
16521;DHT22;8373;48.110;11.522;2023-04-01T10:29:28;15.40;49.40
16521;DHT22;8373;48.110;11.522;2023-04-01T10:38:41;16.50;46.30
16521;DHT22;8373;48.110;11.522;2023-04-01T10:41:27;16.60;47.30
16521;DHT22;8373;48.110;11.522;2023-04-01T10:44:37;16.40;46.80
16521;DHT22;8373;48.110;11.522;2023-04-01T10:47:48;15.90;47.70
16521;DHT22;8373;48.110;11.522;2023-04-01T10:53:35;15.20;49.50
16521;DHT22;8373;48.110;11.522;2023-04-01T10:56:33;15.10;49.80
16521;DHT22;8373;48.110;11.522;2023-04-01T11:02:54;15.00;50.30
16521;DHT22;8373;48.110;11.522;2023-04-01T11:09:05;15.00;51.90
16521;DHT22;8373;48.110;11.522;2023-04-01T11:12:02;14.80;53.10
16521;DHT22;8373;48.110;11.522;2023-04-01T11:21:28;14.80;55.30
16521;DHT22;8373;48.110;11.522;2023-04-01T11:24:32;14.60;55.10
16521;DHT22;8373;48.110;11.522;2023-04-01T11:27:08;14.60;57.00
16521;DHT22;8373;48.110;11.522;2023-04-01T11:29:47;14.70;55.90
16521;DHT22;8373;48.110;11.522;2023-04-01T11:32:27;14.90;55.40
16521;DHT22;8373;48.110;11.522;2023-04-01T11:35:13;15.00;55.30
16521;DHT22;8373;48.110;11.522;2023-04-01T11:37:50;15.10;54.20
16521;DHT22;8373;48.110;11.522;2023-04-01T11:40:25;15.30;54.30
16521;DHT22;8373;48.110;11.522;2023-04-01T11:42:58;15.30;53.20
16521;DHT22;8373;48.110;11.522;2023-04-01T11:45:35;15.20;52.70
16521;DHT22;8373;48.110;11.522;2023-04-01T11:48:17;15.00;53.80
16521;DHT22;8373;48.110;11.522;2023-04-01T11:51:06;14.80;55.10
16521;DHT22;8373;48.110;11.522;2023-04-01T11:53:44;14.60;56.60
16521;DHT22;8373;48.110;11.522;2023-04-01T11:56:43;14.30;58.40
16521;DHT22;8373;48.110;11.522;2023-04-01T12:02:44;13.60;61.20
16521;DHT22;8373;48.110;11.522;2023-04-01T12:05:25;13.20;61.20
16521;DHT22;8373;48.110;11.522;2023-04-01T12:08:05;12.80;62.40
16521;DHT22;8373;48.110;11.522;2023-04-01T12:10:39;12.40;63.10
16521;DHT22;8373;48.110;11.522;2023-04-01T12:13:17;12.20;64.50
16521;DHT22;8373;48.110;11.522;2023-04-01T12:16:09;12.10;64.60
16521;DHT22;8373;48.110;11.522;2023-04-01T12:18:41;12.00;64.80
16521;DHT22;8373;48.110;11.522;2023-04-01T12:21:17;11.80;65.70
16521;DHT22;8373;48.110;11.522;2023-04-01T12:27:07;11.70;67.20
16521;DHT22;8373;48.110;11.522;2023-04-01T12:33:28;11.70;67.20
16521;DHT22;8373;48.110;11.522;2023-04-01T12:36:08;11.50;66.90
16521;DHT22;8373;48.110;11.522;2023-04-01T12:38:44;11.20;66.40
16521;DHT22;8373;48.110;11.522;2023-04-01T12:41:24;11.10;67.90
16521;DHT22;8373;48.110;11.522;2023-04-01T12:44:11;11.00;68.30
16521;DHT22;8373;48.110;11.522;2023-04-01T12:46:50;11.00;69.10
16521;DHT22;8373;48.110;11.522;2023-04-01T12:49:34;11.10;70.00
16521;DHT22;8373;48.110;11.522;2023-04-01T12:52:10;11.20;69.40
16521;DHT22;8373;48.110;11.522;2023-04-01T12:58:23;11.20;68.80
16521;DHT22;8373;48.110;11.522;2023-04-01T13:01:20;11.10;68.10
16521;DHT22;8373;48.110;11.522;2023-04-01T13:04:08;11.10;69.40
16521;DHT22;8373;48.110;11.522;2023-04-01T13:06:47;11.00;69.90
16521;DHT22;8373;48.110;11.522;2023-04-01T13:09:27;11.00;69.50
16521;DHT22;8373;48.110;11.522;2023-04-01T13:12:13;11.10;70.20
16521;DHT22;8373;48.110;11.522;2023-04-01T13:14:56;11.20;70.10
16521;DHT22;8373;48.110;11.522;2023-04-01T13:17:29;11.10;69.70
16521;DHT22;8373;48.110;11.522;2023-04-01T13:20:05;11.20;69.60
16521;DHT22;8373;48.110;11.522;2023-04-01T13:22:45;11.10;69.40
16521;DHT22;8373;48.110;11.522;2023-04-01T13:25:24;11.00;70.10
16521;DHT22;8373;48.110;11.522;2023-04-01T13:28:00;11.00;70.40
16521;DHT22;8373;48.110;11.522;2023-04-01T13:30:34;10.90;71.00
16521;DHT22;8373;48.110;11.522;2023-04-01T13:33:10;10.90;71.40
16521;DHT22;8373;48.110;11.522;2023-04-01T13:35:43;10.90;72.00
16521;DHT22;8373;48.110;11.522;2023-04-01T13:38:31;10.90;72.90
16521;DHT22;8373;48.110;11.522;2023-04-01T13:41:09;10.80;73.00
16521;DHT22;8373;48.110;11.522;2023-04-01T13:43:42;10.70;73.50
16521;DHT22;8373;48.110;11.522;2023-04-01T13:46:40;10.70;74.00
16521;DHT22;8373;48.110;11.522;2023-04-01T13:49:24;10.70;74.80
16521;DHT22;8373;48.110;11.522;2023-04-01T13:52:08;10.70;75.00
16521;DHT22;8373;48.110;11.522;2023-04-01T13:54:53;10.70;75.30
16521;DHT22;8373;48.110;11.522;2023-04-01T13:57:41;10.80;75.40
16521;DHT22;8373;48.110;11.522;2023-04-01T14:00:35;10.80;74.60
16521;DHT22;8373;48.110;11.522;2023-04-01T14:03:30;10.90;74.30
16521;DHT22;8373;48.110;11.522;2023-04-01T14:06:27;10.90;73.80
16521;DHT22;8373;48.110;11.522;2023-04-01T14:09:11;10.90;73.80
16521;DHT22;8373;48.110;11.522;2023-04-01T14:11:53;10.90;74.90
16521;DHT22;8373;48.110;11.522;2023-04-01T14:14:32;10.90;74.80
16521;DHT22;8373;48.110;11.522;2023-04-01T14:17:27;10.80;74.60
16521;DHT22;8373;48.110;11.522;2023-04-01T14:20:25;10.80;75.00
16521;DHT22;8373;48.110;11.522;2023-04-01T14:25:59;11.00;74.80
16521;DHT22;8373;48.110;11.522;2023-04-01T14:28:40;10.90;74.20
16521;DHT22;8373;48.110;11.522;2023-04-01T14:31:24;10.90;74.20
16521;DHT22;8373;48.110;11.522;2023-04-01T14:34:02;10.80;74.00
16521;DHT22;8373;48.110;11.522;2023-04-01T14:36:53;10.90;74.70
16521;DHT22;8373;48.110;11.522;2023-04-01T14:39:38;11.00;75.20
16521;DHT22;8373;48.110;11.522;2023-04-01T14:42:35;11.20;75.60
16521;DHT22;8373;48.110;11.522;2023-04-01T14:48:28;11.20;74.70
16521;DHT22;8373;48.110;11.522;2023-04-01T14:51:03;11.10;75.20
16521;DHT22;8373;48.110;11.522;2023-04-01T14:53:37;11.00;75.60
16521;DHT22;8373;48.110;11.522;2023-04-01T14:56:07;10.90;75.60
16521;DHT22;8373;48.110;11.522;2023-04-01T14:58:43;10.80;76.70
16521;DHT22;8373;48.110;11.522;2023-04-01T15:01:25;10.90;77.20
16521;DHT22;8373;48.110;11.522;2023-04-01T15:04:10;10.90;77.30
16521;DHT22;8373;48.110;11.522;2023-04-01T15:06:52;10.80;77.00
16521;DHT22;8373;48.110;11.522;2023-04-01T15:09:30;10.80;76.90
16521;DHT22;8373;48.110;11.522;2023-04-01T15:12:14;10.70;75.80
16521;DHT22;8373;48.110;11.522;2023-04-01T15:14:47;10.70;75.90
16521;DHT22;8373;48.110;11.522;2023-04-01T15:17:28;10.70;75.60
16521;DHT22;8373;48.110;11.522;2023-04-01T15:20:19;10.80;75.70
16521;DHT22;8373;48.110;11.522;2023-04-01T15:22:57;10.90;75.60
16521;DHT22;8373;48.110;11.522;2023-04-01T15:25:37;10.90;74.20
16521;DHT22;8373;48.110;11.522;2023-04-01T15:28:14;10.90;72.30
16521;DHT22;8373;48.110;11.522;2023-04-01T15:30:50;11.00;72.00
16521;DHT22;8373;48.110;11.522;2023-04-01T15:33:44;11.10;72.70
16521;DHT22;8373;48.110;11.522;2023-04-01T15:36:25;11.30;72.90
16521;DHT22;8373;48.110;11.522;2023-04-01T15:39:00;11.30;72.20
16521;DHT22;8373;48.110;11.522;2023-04-01T15:41:38;11.20;70.60
16521;DHT22;8373;48.110;11.522;2023-04-01T15:44:32;11.30;71.40
16521;DHT22;8373;48.110;11.522;2023-04-01T15:47:01;11.30;70.90
16521;DHT22;8373;48.110;11.522;2023-04-01T15:49:36;11.30;70.70
16521;DHT22;8373;48.110;11.522;2023-04-01T15:52:15;11.50;70.90
16521;DHT22;8373;48.110;11.522;2023-04-01T15:55:13;11.60;70.20
16521;DHT22;8373;48.110;11.522;2023-04-01T15:57:47;11.60;69.10
16521;DHT22;8373;48.110;11.522;2023-04-01T16:00:23;11.60;68.70
16521;DHT22;8373;48.110;11.522;2023-04-01T16:03:18;11.60;67.10
16521;DHT22;8373;48.110;11.522;2023-04-01T16:06:01;11.60;66.40
16521;DHT22;8373;48.110;11.522;2023-04-01T16:08:51;11.60;66.00
16521;DHT22;8373;48.110;11.522;2023-04-01T16:11:27;11.60;65.80
16521;DHT22;8373;48.110;11.522;2023-04-01T16:14:04;11.50;65.50
16521;DHT22;8373;48.110;11.522;2023-04-01T16:16:44;11.50;65.30
16521;DHT22;8373;48.110;11.522;2023-04-01T16:19:27;11.50;65.50
16521;DHT22;8373;48.110;11.522;2023-04-01T16:22:01;11.40;65.40
16521;DHT22;8373;48.110;11.522;2023-04-01T16:24:34;11.40;65.30
16521;DHT22;8373;48.110;11.522;2023-04-01T16:27:08;11.30;64.70
16521;DHT22;8373;48.110;11.522;2023-04-01T16:29:43;11.20;64.50
16521;DHT22;8373;48.110;11.522;2023-04-01T16:32:23;11.20;64.20
16521;DHT22;8373;48.110;11.522;2023-04-01T16:35:03;11.20;64.90
16521;DHT22;8373;48.110;11.522;2023-04-01T16:37:36;11.20;65.10
16521;DHT22;8373;48.110;11.522;2023-04-01T16:40:16;11.20;64.80
16521;DHT22;8373;48.110;11.522;2023-04-01T16:42:51;11.20;64.60
16521;DHT22;8373;48.110;11.522;2023-04-01T16:45:30;11.30;64.30
16521;DHT22;8373;48.110;11.522;2023-04-01T16:48:07;11.30;64.20
16521;DHT22;8373;48.110;11.522;2023-04-01T16:50:46;11.10;63.60
16521;DHT22;8373;48.110;11.522;2023-04-01T16:53:18;11.10;64.20
16521;DHT22;8373;48.110;11.522;2023-04-01T16:55:52;11.00;63.90
16521;DHT22;8373;48.110;11.522;2023-04-01T16:58:27;11.00;64.10
16521;DHT22;8373;48.110;11.522;2023-04-01T17:01:02;10.90;63.40
16521;DHT22;8373;48.110;11.522;2023-04-01T17:03:33;11.00;63.20
16521;DHT22;8373;48.110;11.522;2023-04-01T17:06:19;10.90;63.10
16521;DHT22;8373;48.110;11.522;2023-04-01T17:11:58;10.90;63.50
16521;DHT22;8373;48.110;11.522;2023-04-01T17:14:35;10.90;63.80
16521;DHT22;8373;48.110;11.522;2023-04-01T17:17:15;10.80;63.70
16521;DHT22;8373;48.110;11.522;2023-04-01T17:20:04;10.80;63.70
16521;DHT22;8373;48.110;11.522;2023-04-01T17:22:36;10.90;64.00
16521;DHT22;8373;48.110;11.522;2023-04-01T17:25:29;10.90;63.90
16521;DHT22;8373;48.110;11.522;2023-04-01T17:28:08;10.80;64.00
16521;DHT22;8373;48.110;11.522;2023-04-01T17:30:39;10.90;64.30
16521;DHT22;8373;48.110;11.522;2023-04-01T17:36:32;10.90;63.60
16521;DHT22;8373;48.110;11.522;2023-04-01T17:39:20;10.90;63.40
16521;DHT22;8373;48.110;11.522;2023-04-01T17:41:54;10.90;63.10
16521;DHT22;8373;48.110;11.522;2023-04-01T17:44:44;10.90;63.40
16521;DHT22;8373;48.110;11.522;2023-04-01T17:47:29;10.90;63.00
16521;DHT22;8373;48.110;11.522;2023-04-01T17:50:07;10.80;62.70
16521;DHT22;8373;48.110;11.522;2023-04-01T17:52:42;10.70;62.80
16521;DHT22;8373;48.110;11.522;2023-04-01T17:55:31;10.70;63.20